Spirit Of Saint Louis, MO

1:23 PM CDT on April 01, 2015 (GMT -0500)
Saint Charles County Smartt | | Change Station
CLOSE
Current Station
Airport
Location: St. Charles,
Elevation: 436 ft
Nearby Weather Stations

Elev 436 ft 38.93 °N, 90.43 °W | Updated 29 minutes ago

Partly Cloudy
Partly Cloudy
74 °F
Feels Like 74 °F
N
17
Wind Variable Wind from SSE

Today
High -- | Low -- °F
--% Chance of Precip.
Yesterday
High -- | Low -- °F
Precip. -- in
6:47 AM 7:25 PM
Waxing Gibbous, 93% visible
Pressure 29.98 in
Visibility 10.0 miles
Clouds Clear
Dew Point 38 °F
Humidity 27%
Rainfall 0.00 in
Snow Depth Not available.
UV 9 out of 12
Pollen 11.10 out of 12
Air Quality Not available.
Flu Activity Not available.
METAR KSET 011754Z AUTO 15015KT 10SM CLR 23/03 A2998 RMK AO2 SLP150 T02330033 10233 20044 58013

More Conditions Fewer Conditions

Pressure 29.98 in
Visibility 10.0 miles
Clouds Clear
Dew Point 38 °F
Humidity 27%
Rainfall 0.00 in
Snow Depth Not available.
UV 9 out of 12
Pollen 11.10 out of 12
Air Quality Not available.
Flu Activity Not available.
METAR KSET 011754Z AUTO 15015KT 10SM CLR 23/03 A2998 RMK AO2 SLP150 T02330033 10233 20044 58013

More Conditions Fewer Conditions

10-Day Weather Forecast

Almanac

Astronomy

Apr. 01, 2015 Rise Set
Actual Time
Civil Twilight
Nautical Twilight
Astronomical Twilight
Moon
Length of Visible Light
Length of Day
Tomorrow will be .
, % of the Moon is Illuminated

Today's Extremes

State Highs State Lows

Community

WunderPhotos

Upload Photos

1,810,035 photos uploaded!

WunderBlogs® & News

Nearby

Air Quality

  Air Quality AQ Index Pollutant
Not available.

Snow Depth

Station Depth Elevation

Earthquake Activity

City Distance Mag. Time & Date
Minimum magnitude displayed is 2.5.

Coastal Water Temperatures

Place Temperature

Stations

Nearby Weather Stations

Station Location Temp. Windchill Dew Point Humidity Wind Precip. Elev Updated Type